sensor_id;sensor_type;location;lat;lon;timestamp;temperature;humidity
9668;DHT22;4872;48.316;10.650;2024-01-15T05:05:44;-2.30;95.80
9668;DHT22;4872;48.316;10.650;2024-01-15T05:08:10;-2.30;95.70
9668;DHT22;4872;48.316;10.650;2024-01-15T05:10:37;-2.20;95.60
9668;DHT22;4872;48.316;10.650;2024-01-15T05:13:04;-2.20;95.50
9668;DHT22;4872;48.316;10.650;2024-01-15T05:15:31;-2.20;95.30
9668;DHT22;4872;48.316;10.650;2024-01-15T05:17:57;-2.10;95.30
9668;DHT22;4872;48.316;10.650;2024-01-15T05:20:24;-2.10;95.20
9668;DHT22;4872;48.316;10.650;2024-01-15T05:22:52;-2.10;95.20
9668;DHT22;4872;48.316;10.650;2024-01-15T05:25:19;-2.10;95.10
9668;DHT22;4872;48.316;10.650;2024-01-15T05:27:46;-2.10;95.10
9668;DHT22;4872;48.316;10.650;2024-01-15T05:30:13;-2.00;95.00
9668;DHT22;4872;48.316;10.650;2024-01-15T05:32:40;-1.90;94.90
9668;DHT22;4872;48.316;10.650;2024-01-15T05:35:07;-1.90;94.80
9668;DHT22;4872;48.316;10.650;2024-01-15T05:37:34;-1.80;94.60
9668;DHT22;4872;48.316;10.650;2024-01-15T05:40:03;-1.80;94.60
9668;DHT22;4872;48.316;10.650;2024-01-15T05:42:31;-1.80;94.40
9668;DHT22;4872;48.316;10.650;2024-01-15T05:45:08;-1.80;94.50
9668;DHT22;4872;48.316;10.650;2024-01-15T05:47:36;-1.80;94.60
9668;DHT22;4872;48.316;10.650;2024-01-15T05:50:04;-1.80;94.40
9668;DHT22;4872;48.316;10.650;2024-01-15T05:52:30;-1.80;94.40
9668;DHT22;4872;48.316;10.650;2024-01-15T05:54:57;-1.80;94.40
9668;DHT22;4872;48.316;10.650;2024-01-15T05:57:26;-1.80;94.40
9668;DHT22;4872;48.316;10.650;2024-01-15T05:59:53;-1.80;94.40
9668;DHT22;4872;48.316;10.650;2024-01-15T06:02:20;-1.80;94.40
9668;DHT22;4872;48.316;10.650;2024-01-15T06:04:47;-1.80;94.40
9668;DHT22;4872;48.316;10.650;2024-01-15T06:07:14;-1.80;94.40
9668;DHT22;4872;48.316;10.650;2024-01-15T06:09:40;-1.70;94.20
9668;DHT22;4872;48.316;10.650;2024-01-15T06:12:08;-1.70;94.20
9668;DHT22;4872;48.316;10.650;2024-01-15T06:14:36;-1.60;94.30
9668;DHT22;4872;48.316;10.650;2024-01-15T06:17:03;-1.60;94.40
9668;DHT22;4872;48.316;10.650;2024-01-15T06:19:30;-1.50;94.80
9668;DHT22;4872;48.316;10.650;2024-01-15T06:21:56;-1.40;95.10
9668;DHT22;4872;48.316;10.650;2024-01-15T06:24:26;-1.30;95.40
9668;DHT22;4872;48.316;10.650;2024-01-15T06:26:53;-1.20;95.60
9668;DHT22;4872;48.316;10.650;2024-01-15T06:29:19;-1.10;95.60
9668;DHT22;4872;48.316;10.650;2024-01-15T06:31:48;-1.00;95.50
9668;DHT22;4872;48.316;10.650;2024-01-15T06:34:15;-1.00;95.50
9668;DHT22;4872;48.316;10.650;2024-01-15T06:36:42;-1.00;95.40
9668;DHT22;4872;48.316;10.650;2024-01-15T06:39:09;-0.90;95.60
9668;DHT22;4872;48.316;10.650;2024-01-15T06:41:36;-0.90;95.80
9668;DHT22;4872;48.316;10.650;2024-01-15T06:44:06;-0.90;95.70
9668;DHT22;4872;48.316;10.650;2024-01-15T06:46:34;-0.80;95.80
9668;DHT22;4872;48.316;10.650;2024-01-15T06:49:03;-0.80;95.70
9668;DHT22;4872;48.316;10.650;2024-01-15T06:51:29;-0.90;95.60
9668;DHT22;4872;48.316;10.650;2024-01-15T06:53:56;-0.80;95.70
9668;DHT22;4872;48.316;10.650;2024-01-15T06:56:23;-0.80;95.60
9668;DHT22;4872;48.316;10.650;2024-01-15T06:58:50;-0.80;95.30
9668;DHT22;4872;48.316;10.650;2024-01-15T07:01:17;-0.70;95.10
9668;DHT22;4872;48.316;10.650;2024-01-15T07:03:45;-0.70;94.70
9668;DHT22;4872;48.316;10.650;2024-01-15T07:06:14;-0.70;94.50
9668;DHT22;4872;48.316;10.650;2024-01-15T07:08:41;-0.70;94.60
9668;DHT22;4872;48.316;10.650;2024-01-15T07:11:08;-0.60;94.40
9668;DHT22;4872;48.316;10.650;2024-01-15T07:13:36;-0.70;94.20
9668;DHT22;4872;48.316;10.650;2024-01-15T07:16:03;-0.60;94.00
9668;DHT22;4872;48.316;10.650;2024-01-15T07:18:31;-0.60;93.70
9668;DHT22;4872;48.316;10.650;2024-01-15T07:20:58;-0.60;93.60
9668;DHT22;4872;48.316;10.650;2024-01-15T07:23:28;-0.50;93.60
9668;DHT22;4872;48.316;10.650;2024-01-15T07:25:54;-0.50;92.60
9668;DHT22;4872;48.316;10.650;2024-01-15T07:28:21;-0.50;92.30
9668;DHT22;4872;48.316;10.650;2024-01-15T07:30:48;-0.40;92.40
9668;DHT22;4872;48.316;10.650;2024-01-15T07:33:15;-0.40;92.50
9668;DHT22;4872;48.316;10.650;2024-01-15T07:35:42;-0.40;92.50
9668;DHT22;4872;48.316;10.650;2024-01-15T07:38:08;-0.40;92.50
9668;DHT22;4872;48.316;10.650;2024-01-15T07:40:38;-0.40;92.30
9668;DHT22;4872;48.316;10.650;2024-01-15T07:43:05;-0.40;92.50
9668;DHT22;4872;48.316;10.650;2024-01-15T07:45:32;-0.40;92.50
9668;DHT22;4872;48.316;10.650;2024-01-15T07:47:59;-0.40;92.50
9668;DHT22;4872;48.316;10.650;2024-01-15T07:50:25;-0.40;92.70
9668;DHT22;4872;48.316;10.650;2024-01-15T07:52:52;-0.40;92.80
9668;DHT22;4872;48.316;10.650;2024-01-15T07:55:19;-0.40;93.00
9668;DHT22;4872;48.316;10.650;2024-01-15T07:57:47;-0.30;93.10
9668;DHT22;4872;48.316;10.650;2024-01-15T08:00:15;-0.30;93.30
9668;DHT22;4872;48.316;10.650;2024-01-15T08:02:42;-0.30;93.50
9668;DHT22;4872;48.316;10.650;2024-01-15T08:05:09;-0.30;93.80
9668;DHT22;4872;48.316;10.650;2024-01-15T08:07:35;-0.30;93.80
9668;DHT22;4872;48.316;10.650;2024-01-15T08:10:02;-0.20;93.90
9668;DHT22;4872;48.316;10.650;2024-01-15T08:12:29;-0.20;93.60
9668;DHT22;4872;48.316;10.650;2024-01-15T08:14:57;-0.30;93.50
9668;DHT22;4872;48.316;10.650;2024-01-15T08:17:24;-0.30;93.50
9668;DHT22;4872;48.316;10.650;2024-01-15T08:19:54;-0.30;93.30
9668;DHT22;4872;48.316;10.650;2024-01-15T08:22:20;-0.30;92.90
9668;DHT22;4872;48.316;10.650;2024-01-15T08:24:47;-0.30;92.80
9668;DHT22;4872;48.316;10.650;2024-01-15T08:27:14;-0.20;92.60
9668;DHT22;4872;48.316;10.650;2024-01-15T08:29:41;-0.20;92.20
9668;DHT22;4872;48.316;10.650;2024-01-15T08:32:09;-0.10;92.00
9668;DHT22;4872;48.316;10.650;2024-01-15T08:34:39;-0.10;91.70
9668;DHT22;4872;48.316;10.650;2024-01-15T08:37:06;0.00;91.00
9668;DHT22;4872;48.316;10.650;2024-01-15T08:39:33;0.10;90.40
9668;DHT22;4872;48.316;10.650;2024-01-15T08:41:59;0.10;90.10
9668;DHT22;4872;48.316;10.650;2024-01-15T08:44:26;0.20;90.40
9668;DHT22;4872;48.316;10.650;2024-01-15T08:46:53;0.40;90.20
9668;DHT22;4872;48.316;10.650;2024-01-15T08:49:22;0.40;89.00
9668;DHT22;4872;48.316;10.650;2024-01-15T08:51:48;0.40;88.80
9668;DHT22;4872;48.316;10.650;2024-01-15T08:54:15;0.40;88.60
9668;DHT22;4872;48.316;10.650;2024-01-15T08:56:43;0.40;87.80
9668;DHT22;4872;48.316;10.650;2024-01-15T08:59:10;0.40;87.20
9668;DHT22;4872;48.316;10.650;2024-01-15T09:01:38;0.40;87.20
9668;DHT22;4872;48.316;10.650;2024-01-15T09:04:05;0.60;87.20
9668;DHT22;4872;48.316;10.650;2024-01-15T09:06:33;0.50;85.80
9668;DHT22;4872;48.316;10.650;2024-01-15T09:09:00;0.50;86.40
9668;DHT22;4872;48.316;10.650;2024-01-15T09:11:27;0.50;85.80
9668;DHT22;4872;48.316;10.650;2024-01-15T09:13:53;0.50;85.50
9668;DHT22;4872;48.316;10.650;2024-01-15T09:16:20;0.50;85.20
9668;DHT22;4872;48.316;10.650;2024-01-15T09:18:47;0.50;84.60
9668;DHT22;4872;48.316;10.650;2024-01-15T09:21:14;0.40;84.60
9668;DHT22;4872;48.316;10.650;2024-01-15T09:23:42;0.50;84.50
9668;DHT22;4872;48.316;10.650;2024-01-15T09:26:09;0.50;84.90
9668;DHT22;4872;48.316;10.650;2024-01-15T09:28:36;0.60;84.70
9668;DHT22;4872;48.316;10.650;2024-01-15T09:31:03;0.60;85.10
9668;DHT22;4872;48.316;10.650;2024-01-15T09:33:29;0.60;85.40
9668;DHT22;4872;48.316;10.650;2024-01-15T09:35:56;0.60;84.70
9668;DHT22;4872;48.316;10.650;2024-01-15T09:38:23;0.60;85.20
9668;DHT22;4872;48.316;10.650;2024-01-15T09:40:51;0.70;85.10
9668;DHT22;4872;48.316;10.650;2024-01-15T09:43:19;0.80;84.80
9668;DHT22;4872;48.316;10.650;2024-01-15T09:45:46;0.90;85.10
9668;DHT22;4872;48.316;10.650;2024-01-15T09:48:13;1.00;85.10
9668;DHT22;4872;48.316;10.650;2024-01-15T09:50:40;1.10;84.80
9668;DHT22;4872;48.316;10.650;2024-01-15T09:53:07;1.30;83.80
9668;DHT22;4872;48.316;10.650;2024-01-15T09:55:34;1.50;83.00
9668;DHT22;4872;48.316;10.650;2024-01-15T09:58:03;1.80;82.20
9668;DHT22;4872;48.316;10.650;2024-01-15T10:00:30;2.10;80.50
9668;DHT22;4872;48.316;10.650;2024-01-15T10:02:57;2.50;79.60
9668;DHT22;4872;48.316;10.650;2024-01-15T10:05:25;3.00;78.20
9668;DHT22;4872;48.316;10.650;2024-01-15T10:07:53;3.10;78.00
9668;DHT22;4872;48.316;10.650;2024-01-15T10:10:21;2.70;77.50
9668;DHT22;4872;48.316;10.650;2024-01-15T10:12:48;2.60;78.20
9668;DHT22;4872;48.316;10.650;2024-01-15T10:15:17;3.30;78.80
9668;DHT22;4872;48.316;10.650;2024-01-15T10:17:43;3.60;77.10
9668;DHT22;4872;48.316;10.650;2024-01-15T10:20:11;3.90;75.50
9668;DHT22;4872;48.316;10.650;2024-01-15T10:22:40;3.80;75.60
9668;DHT22;4872;48.316;10.650;2024-01-15T10:25:10;4.00;75.70
9668;DHT22;4872;48.316;10.650;2024-01-15T10:27:37;4.50;75.70
9668;DHT22;4872;48.316;10.650;2024-01-15T10:30:05;5.30;74.90
9668;DHT22;4872;48.316;10.650;2024-01-15T10:32:33;5.50;73.30
9668;DHT22;4872;48.316;10.650;2024-01-15T10:35:00;5.50;71.70
9668;DHT22;4872;48.316;10.650;2024-01-15T10:37:27;5.80;70.70
9668;DHT22;4872;48.316;10.650;2024-01-15T10:39:54;6.60;70.60
9668;DHT22;4872;48.316;10.650;2024-01-15T10:42:27;6.80;68.60
9668;DHT22;4872;48.316;10.650;2024-01-15T10:47:39;6.20;66.30
9668;DHT22;4872;48.316;10.650;2024-01-15T10:53:55;5.10;66.90
9668;DHT22;4872;48.316;10.650;2024-01-15T10:56:25;4.30;67.60
9668;DHT22;4872;48.316;10.650;2024-01-15T10:58:56;3.70;68.10
9668;DHT22;4872;48.316;10.650;2024-01-15T11:09:04;3.10;71.10
9668;DHT22;4872;48.316;10.650;2024-01-15T11:11:40;2.50;71.50
9668;DHT22;4872;48.316;10.650;2024-01-15T11:14:07;2.40;72.00
9668;DHT22;4872;48.316;10.650;2024-01-15T11:16:56;2.40;72.70
9668;DHT22;4872;48.316;10.650;2024-01-15T11:19:35;2.20;73.50
9668;DHT22;4872;48.316;10.650;2024-01-15T11:24:57;2.00;75.20
9668;DHT22;4872;48.316;10.650;2024-01-15T11:27:40;2.00;75.10
9668;DHT22;4872;48.316;10.650;2024-01-15T11:33:48;1.90;75.90
9668;DHT22;4872;48.316;10.650;2024-01-15T12:50:23;2.10;81.00
9668;DHT22;4872;48.316;10.650;2024-01-15T12:52:57;2.20;81.70
9668;DHT22;4872;48.316;10.650;2024-01-15T12:55:30;2.00;82.10
9668;DHT22;4872;48.316;10.650;2024-01-15T13:01:30;1.90;82.20
9668;DHT22;4872;48.316;10.650;2024-01-15T13:04:00;1.60;82.80
9668;DHT22;4872;48.316;10.650;2024-01-15T13:06:37;1.70;82.40
9668;DHT22;4872;48.316;10.650;2024-01-15T13:15:46;1.60;83.00
9668;DHT22;4872;48.316;10.650;2024-01-15T13:18:43;1.60;82.80
9668;DHT22;4872;48.316;10.650;2024-01-15T13:21:26;1.50;83.40
9668;DHT22;4872;48.316;10.650;2024-01-15T13:23:57;1.50;84.20
9668;DHT22;4872;48.316;10.650;2024-01-15T13:26:24;1.50;84.10
9668;DHT22;4872;48.316;10.650;2024-01-15T13:28:53;1.40;84.30
9668;DHT22;4872;48.316;10.650;2024-01-15T13:31:21;1.40;84.60
9668;DHT22;4872;48.316;10.650;2024-01-15T13:35:35;1.40;84.50
9668;DHT22;4872;48.316;10.650;2024-01-15T13:37:07;1.40;85.00
9668;DHT22;4872;48.316;10.650;2024-01-15T13:52:49;1.40;85.30
9668;DHT22;4872;48.316;10.650;2024-01-15T13:55:17;1.40;85.50
9668;DHT22;4872;48.316;10.650;2024-01-15T13:57:52;1.50;85.40
9668;DHT22;4872;48.316;10.650;2024-01-15T14:00:34;1.50;85.00
9668;DHT22;4872;48.316;10.650;2024-01-15T14:03:05;1.40;85.80
9668;DHT22;4872;48.316;10.650;2024-01-15T14:05:43;1.40;86.10
9668;DHT22;4872;48.316;10.650;2024-01-15T14:11:49;1.40;85.90
9668;DHT22;4872;48.316;10.650;2024-01-15T14:14:17;1.40;86.40
9668;DHT22;4872;48.316;10.650;2024-01-15T14:16:44;1.40;86.40
9668;DHT22;4872;48.316;10.650;2024-01-15T14:19:49;1.40;86.60
9668;DHT22;4872;48.316;10.650;2024-01-15T14:22:46;1.50;86.90
9668;DHT22;4872;48.316;10.650;2024-01-15T14:25:29;1.30;87.10
9668;DHT22;4872;48.316;10.650;2024-01-15T14:28:00;1.50;87.80
9668;DHT22;4872;48.316;10.650;2024-01-15T14:30:27;1.30;87.90
9668;DHT22;4872;48.316;10.650;2024-01-15T14:32:54;1.30;88.70
9668;DHT22;4872;48.316;10.650;2024-01-15T14:35:21;1.20;89.70
9668;DHT22;4872;48.316;10.650;2024-01-15T14:37:53;1.20;90.20
9668;DHT22;4872;48.316;10.650;2024-01-15T14:40:34;1.10;90.30
9668;DHT22;4872;48.316;10.650;2024-01-15T14:43:16;1.10;90.50
9668;DHT22;4872;48.316;10.650;2024-01-15T14:45:43;1.10;90.80
9668;DHT22;4872;48.316;10.650;2024-01-15T14:48:22;1.10;91.20
9668;DHT22;4872;48.316;10.650;2024-01-15T14:50:51;1.10;91.70
9668;DHT22;4872;48.316;10.650;2024-01-15T14:53:24;1.00;92.20
9668;DHT22;4872;48.316;10.650;2024-01-15T14:56:13;1.10;92.90
9668;DHT22;4872;48.316;10.650;2024-01-15T14:58:51;0.90;93.70
9668;DHT22;4872;48.316;10.650;2024-01-15T15:01:18;0.80;94.60
9668;DHT22;4872;48.316;10.650;2024-01-15T15:03:45;0.80;95.60
9668;DHT22;4872;48.316;10.650;2024-01-15T15:09:52;0.40;97.70
9668;DHT22;4872;48.316;10.650;2024-01-15T15:12:19;0.50;98.80
9668;DHT22;4872;48.316;10.650;2024-01-15T15:14:53;0.50;99.50
9668;DHT22;4872;48.316;10.650;2024-01-15T15:17:27;0.40;99.90
9668;DHT22;4872;48.316;10.650;2024-01-15T15:23:46;0.40;99.90
9668;DHT22;4872;48.316;10.650;2024-01-15T15:26:24;0.40;99.90
9668;DHT22;4872;48.316;10.650;2024-01-15T15:28:59;0.40;99.90
9668;DHT22;4872;48.316;10.650;2024-01-15T15:32:01;0.40;99.90
9668;DHT22;4872;48.316;10.650;2024-01-15T15:50:11;0.20;99.90
9668;DHT22;4872;48.316;10.650;2024-01-15T16:02:03;0.20;99.90
9668;DHT22;4872;48.316;10.650;2024-01-15T16:04:52;0.20;99.90
9668;DHT22;4872;48.316;10.650;2024-01-15T16:11:04;0.20;99.90
9668;DHT22;4872;48.316;10.650;2024-01-15T16:13:32;0.20;99.90
9668;DHT22;4872;48.316;10.650;2024-01-15T16:15:59;0.30;99.90
9668;DHT22;4872;48.316;10.650;2024-01-15T16:18:26;0.20;99.90
9668;DHT22;4872;48.316;10.650;2024-01-15T16:20:53;0.20;99.90
9668;DHT22;4872;48.316;10.650;2024-01-15T16:23:20;0.30;99.90
9668;DHT22;4872;48.316;10.650;2024-01-15T16:25:47;0.30;99.90
9668;DHT22;4872;48.316;10.650;2024-01-15T16:28:15;0.30;99.90
9668;DHT22;4872;48.316;10.650;2024-01-15T16:30:42;0.30;99.90
9668;DHT22;4872;48.316;10.650;2024-01-15T16:33:08;0.40;99.90
9668;DHT22;4872;48.316;10.650;2024-01-15T16:35:35;0.30;99.90
9668;DHT22;4872;48.316;10.650;2024-01-15T16:38:02;0.40;99.90
9668;DHT22;4872;48.316;10.650;2024-01-15T16:40:29;0.20;99.90
9668;DHT22;4872;48.316;10.650;2024-01-15T16:42:56;0.20;99.90
9668;DHT22;4872;48.316;10.650;2024-01-15T16:45:24;0.00;99.90
9668;DHT22;4872;48.316;10.650;2024-01-15T16:47:51;-0.50;99.90
9668;DHT22;4872;48.316;10.650;2024-01-15T16:50:18;-0.80;99.90
9668;DHT22;4872;48.316;10.650;2024-01-15T16:52:45;-1.00;99.90
9668;DHT22;4872;48.316;10.650;2024-01-15T16:55:12;-1.10;99.90
9668;DHT22;4872;48.316;10.650;2024-01-15T16:57:39;-1.10;99.90
9668;DHT22;4872;48.316;10.650;2024-01-15T17:00:07;-1.10;99.90
9668;DHT22;4872;48.316;10.650;2024-01-15T17:02:35;-1.10;99.90
9668;DHT22;4872;48.316;10.650;2024-01-15T17:05:03;-1.10;99.90
9668;DHT22;4872;48.316;10.650;2024-01-15T17:07:29;-1.10;99.90
9668;DHT22;4872;48.316;10.650;2024-01-15T17:09:56;-0.90;99.90
9668;DHT22;4872;48.316;10.650;2024-01-15T17:12:24;-1.00;99.90
9668;DHT22;4872;48.316;10.650;2024-01-15T17:14:51;-1.10;99.90
9668;DHT22;4872;48.316;10.650;2024-01-15T17:17:18;-1.10;99.90
9668;DHT22;4872;48.316;10.650;2024-01-15T17:19:48;-1.00;99.90
9668;DHT22;4872;48.316;10.650;2024-01-15T17:22:16;-1.10;99.90
9668;DHT22;4872;48.316;10.650;2024-01-15T17:24:42;-1.10;99.90
9668;DHT22;4872;48.316;10.650;2024-01-15T17:27:10;-1.10;99.90
9668;DHT22;4872;48.316;10.650;2024-01-15T17:29:37;-1.10;99.90
9668;DHT22;4872;48.316;10.650;2024-01-15T17:32:04;-1.10;99.90
9668;DHT22;4872;48.316;10.650;2024-01-15T17:34:31;-1.10;99.90
9668;DHT22;4872;48.316;10.650;2024-01-15T17:37:00;-1.10;99.90
9668;DHT22;4872;48.316;10.650;2024-01-15T17:39:26;-1.10;99.90
9668;DHT22;4872;48.316;10.650;2024-01-15T17:41:53;-1.10;99.90
9668;DHT22;4872;48.316;10.650;2024-01-15T17:44:20;-1.10;99.90
9668;DHT22;4872;48.316;10.650;2024-01-15T17:46:50;-1.10;99.90
9668;DHT22;4872;48.316;10.650;2024-01-15T17:49:17;-1.10;99.90
9668;DHT22;4872;48.316;10.650;2024-01-15T17:51:43;-1.00;99.90
9668;DHT22;4872;48.316;10.650;2024-01-15T17:54:11;-1.00;99.90
9668;DHT22;4872;48.316;10.650;2024-01-15T17:56:38;-1.00;99.90
9668;DHT22;4872;48.316;10.650;2024-01-15T17:59:05;-0.90;99.90
9668;DHT22;4872;48.316;10.650;2024-01-15T18:01:32;-1.00;99.90
9668;DHT22;4872;48.316;10.650;2024-01-15T18:04:00;-1.00;99.90
9668;DHT22;4872;48.316;10.650;2024-01-15T18:06:28;-1.00;99.40
9668;DHT22;4872;48.316;10.650;2024-01-15T18:08:55;-1.00;99.10
9668;DHT22;4872;48.316;10.650;2024-01-15T18:11:24;-1.00;98.30
9668;DHT22;4872;48.316;10.650;2024-01-15T18:13:50;-1.00;98.00
9668;DHT22;4872;48.316;10.650;2024-01-15T18:16:17;-1.00;97.60
9668;DHT22;4872;48.316;10.650;2024-01-15T18:18:48;-1.10;97.30
9668;DHT22;4872;48.316;10.650;2024-01-15T18:21:17;-1.10;97.20
9668;DHT22;4872;48.316;10.650;2024-01-15T18:23:44;-1.10;96.90
9668;DHT22;4872;48.316;10.650;2024-01-15T18:26:11;-1.20;96.90
9668;DHT22;4872;48.316;10.650;2024-01-15T18:28:39;-1.20;96.90
9668;DHT22;4872;48.316;10.650;2024-01-15T18:31:06;-1.20;96.90
9668;DHT22;4872;48.316;10.650;2024-01-15T18:33:33;-1.30;96.70
9668;DHT22;4872;48.316;10.650;2024-01-15T18:36:01;-1.30;96.90
9668;DHT22;4872;48.316;10.650;2024-01-15T18:38:28;-1.40;96.80
9668;DHT22;4872;48.316;10.650;2024-01-15T18:40:56;-1.40;96.50
9668;DHT22;4872;48.316;10.650;2024-01-15T18:43:23;-1.40;96.40
9668;DHT22;4872;48.316;10.650;2024-01-15T18:45:51;-1.40;96.30
9668;DHT22;4872;48.316;10.650;2024-01-15T18:48:17;-1.40;96.00
9668;DHT22;4872;48.316;10.650;2024-01-15T18:50:44;-1.40;95.90
9668;DHT22;4872;48.316;10.650;2024-01-15T18:53:11;-1.50;95.70
9668;DHT22;4872;48.316;10.650;2024-01-15T18:55:39;-1.50;95.70
9668;DHT22;4872;48.316;10.650;2024-01-15T18:58:06;-1.50;95.90
9668;DHT22;4872;48.316;10.650;2024-01-15T19:00:32;-1.60;95.90
9668;DHT22;4872;48.316;10.650;2024-01-15T19:03:01;-1.60;96.00
9668;DHT22;4872;48.316;10.650;2024-01-15T19:05:27;-1.60;95.70
9668;DHT22;4872;48.316;10.650;2024-01-15T19:07:56;-1.70;96.00
9668;DHT22;4872;48.316;10.650;2024-01-15T19:10:24;-1.70;96.00
9668;DHT22;4872;48.316;10.650;2024-01-15T19:12:51;-1.70;95.70
9668;DHT22;4872;48.316;10.650;2024-01-15T19:15:18;-1.80;95.70
9668;DHT22;4872;48.316;10.650;2024-01-15T19:17:45;-1.80;95.60
9668;DHT22;4872;48.316;10.650;2024-01-15T19:20:15;-1.80;95.40
9668;DHT22;4872;48.316;10.650;2024-01-15T19:22:46;-1.80;95.20
9668;DHT22;4872;48.316;10.650;2024-01-15T19:25:13;-1.80;95.10
9668;DHT22;4872;48.316;10.650;2024-01-15T19:27:40;-1.80;95.20
9668;DHT22;4872;48.316;10.650;2024-01-15T19:30:11;-1.80;95.00
9668;DHT22;4872;48.316;10.650;2024-01-15T19:32:39;-1.80;95.00
9668;DHT22;4872;48.316;10.650;2024-01-15T19:35:07;-1.90;95.00
9668;DHT22;4872;48.316;10.650;2024-01-15T19:37:35;-1.90;95.10
9668;DHT22;4872;48.316;10.650;2024-01-15T19:40:02;-1.90;95.10
9668;DHT22;4872;48.316;10.650;2024-01-15T19:42:29;-1.90;95.10
9668;DHT22;4872;48.316;10.650;2024-01-15T19:44:55;-1.90;95.00
9668;DHT22;4872;48.316;10.650;2024-01-15T19:47:23;-1.90;95.20
9668;DHT22;4872;48.316;10.650;2024-01-15T19:49:50;-1.90;95.10
9668;DHT22;4872;48.316;10.650;2024-01-15T19:52:17;-2.00;95.20
9668;DHT22;4872;48.316;10.650;2024-01-15T19:54:53;-2.00;95.20
9668;DHT22;4872;48.316;10.650;2024-01-15T19:57:20;-1.80;95.60
9668;DHT22;4872;48.316;10.650;2024-01-15T19:59:47;-1.90;95.40
9668;DHT22;4872;48.316;10.650;2024-01-15T20:02:14;-1.80;95.50
9668;DHT22;4872;48.316;10.650;2024-01-15T20:04:41;-1.80;95.50
9668;DHT22;4872;48.316;10.650;2024-01-15T20:07:08;-1.70;95.50
9668;DHT22;4872;48.316;10.650;2024-01-15T20:09:35;-1.70;95.80
9668;DHT22;4872;48.316;10.650;2024-01-15T20:12:04;-1.60;95.40
9668;DHT22;4872;48.316;10.650;2024-01-15T20:14:32;-1.60;95.30
9668;DHT22;4872;48.316;10.650;2024-01-15T20:17:00;-1.50;95.20
9668;DHT22;4872;48.316;10.650;2024-01-15T20:19:29;-1.50;95.20
9668;DHT22;4872;48.316;10.650;2024-01-15T20:21:56;-1.40;94.90
9668;DHT22;4872;48.316;10.650;2024-01-15T20:24:23;-1.40;94.80
9668;DHT22;4872;48.316;10.650;2024-01-15T20:26:51;-1.30;94.80
9668;DHT22;4872;48.316;10.650;2024-01-15T20:29:19;-1.40;94.60
9668;DHT22;4872;48.316;10.650;2024-01-15T20:31:46;-1.40;94.70
9668;DHT22;4872;48.316;10.650;2024-01-15T20:34:13;-1.40;94.70
9668;DHT22;4872;48.316;10.650;2024-01-15T20:36:40;-1.40;94.40
9668;DHT22;4872;48.316;10.650;2024-01-15T20:39:07;-1.40;94.40
9668;DHT22;4872;48.316;10.650;2024-01-15T20:41:34;-1.40;94.30
9668;DHT22;4872;48.316;10.650;2024-01-15T20:44:01;-1.50;94.20
9668;DHT22;4872;48.316;10.650;2024-01-15T20:46:32;-1.40;94.10
9668;DHT22;4872;48.316;10.650;2024-01-15T20:48:58;-1.50;94.10
9668;DHT22;4872;48.316;10.650;2024-01-15T20:51:25;-1.50;93.80
9668;DHT22;4872;48.316;10.650;2024-01-15T20:53:52;-1.50;93.60
9668;DHT22;4872;48.316;10.650;2024-01-15T20:56:19;-1.50;93.30
9668;DHT22;4872;48.316;10.650;2024-01-15T20:58:46;-1.60;93.00
9668;DHT22;4872;48.316;10.650;2024-01-15T21:01:13;-1.60;92.50
9668;DHT22;4872;48.316;10.650;2024-01-15T21:03:41;-1.60;92.80
9668;DHT22;4872;48.316;10.650;2024-01-15T21:06:08;-1.70;92.30
9668;DHT22;4872;48.316;10.650;2024-01-15T21:08:35;-1.70;92.10
9668;DHT22;4872;48.316;10.650;2024-01-15T21:11:02;-1.80;91.80
9668;DHT22;4872;48.316;10.650;2024-01-15T21:13:29;-1.80;91.60
9668;DHT22;4872;48.316;10.650;2024-01-15T21:15:55;-1.70;91.50
9668;DHT22;4872;48.316;10.650;2024-01-15T21:18:25;-1.70;91.10
9668;DHT22;4872;48.316;10.650;2024-01-15T21:20:53;-1.70;91.10
9668;DHT22;4872;48.316;10.650;2024-01-15T21:23:21;-1.70;90.90
9668;DHT22;4872;48.316;10.650;2024-01-15T21:25:47;-1.70;90.70
9668;DHT22;4872;48.316;10.650;2024-01-15T21:28:15;-1.70;90.70
9668;DHT22;4872;48.316;10.650;2024-01-15T21:30:42;-1.70;90.40
9668;DHT22;4872;48.316;10.650;2024-01-15T21:33:09;-1.70;90.60
9668;DHT22;4872;48.316;10.650;2024-01-15T21:35:36;-1.70;90.40
9668;DHT22;4872;48.316;10.650;2024-01-15T21:38:04;-1.70;90.30
9668;DHT22;4872;48.316;10.650;2024-01-15T21:40:32;-1.70;90.50
9668;DHT22;4872;48.316;10.650;2024-01-15T21:42:59;-1.70;90.30
9668;DHT22;4872;48.316;10.650;2024-01-15T21:45:25;-1.70;90.20
9668;DHT22;4872;48.316;10.650;2024-01-15T21:47:53;-1.70;90.40
9668;DHT22;4872;48.316;10.650;2024-01-15T21:50:20;-1.70;90.40
9668;DHT22;4872;48.316;10.650;2024-01-15T21:52:46;-1.70;90.10
9668;DHT22;4872;48.316;10.650;2024-01-15T21:55:15;-1.60;90.30
9668;DHT22;4872;48.316;10.650;2024-01-15T21:57:43;-1.60;90.20
9668;DHT22;4872;48.316;10.650;2024-01-15T22:00:13;-1.60;90.30
9668;DHT22;4872;48.316;10.650;2024-01-15T22:02:41;-1.50;90.40
9668;DHT22;4872;48.316;10.650;2024-01-15T22:05:11;-1.50;90.50
9668;DHT22;4872;48.316;10.650;2024-01-15T22:07:40;-1.60;90.20
9668;DHT22;4872;48.316;10.650;2024-01-15T22:10:09;-1.50;90.20
9668;DHT22;4872;48.316;10.650;2024-01-15T22:12:38;-1.50;90.10
9668;DHT22;4872;48.316;10.650;2024-01-15T22:15:05;-1.50;90.20
9668;DHT22;4872;48.316;10.650;2024-01-15T22:17:32;-1.40;90.20
9668;DHT22;4872;48.316;10.650;2024-01-15T22:19:59;-1.50;90.20
9668;DHT22;4872;48.316;10.650;2024-01-15T22:22:26;-1.40;90.10
9668;DHT22;4872;48.316;10.650;2024-01-15T22:24:52;-1.40;90.10
9668;DHT22;4872;48.316;10.650;2024-01-15T22:27:19;-1.40;90.10
9668;DHT22;4872;48.316;10.650;2024-01-15T22:29:47;-1.40;89.60
9668;DHT22;4872;48.316;10.650;2024-01-15T22:32:16;-1.30;90.10
9668;DHT22;4872;48.316;10.650;2024-01-15T22:34:43;-1.30;90.00
9668;DHT22;4872;48.316;10.650;2024-01-15T22:37:10;-1.30;90.10
9668;DHT22;4872;48.316;10.650;2024-01-15T22:39:37;-1.30;90.00
9668;DHT22;4872;48.316;10.650;2024-01-15T22:42:04;-1.30;90.00
9668;DHT22;4872;48.316;10.650;2024-01-15T22:44:31;-1.30;89.80
9668;DHT22;4872;48.316;10.650;2024-01-15T22:46:59;-1.30;89.80
9668;DHT22;4872;48.316;10.650;2024-01-15T22:49:26;-1.30;90.00
9668;DHT22;4872;48.316;10.650;2024-01-15T22:51:52;-1.30;90.10
9668;DHT22;4872;48.316;10.650;2024-01-15T22:54:19;-1.30;90.00
9668;DHT22;4872;48.316;10.650;2024-01-15T22:56:46;-1.30;89.50
9668;DHT22;4872;48.316;10.650;2024-01-15T22:59:13;-1.30;89.70
9668;DHT22;4872;48.316;10.650;2024-01-15T23:01:44;-1.30;90.00
9668;DHT22;4872;48.316;10.650;2024-01-15T23:04:13;-1.30;89.70
9668;DHT22;4872;48.316;10.650;2024-01-15T23:06:40;-1.30;89.60
9668;DHT22;4872;48.316;10.650;2024-01-15T23:09:07;-1.30;89.90
9668;DHT22;4872;48.316;10.650;2024-01-15T23:11:34;-1.20;89.20
9668;DHT22;4872;48.316;10.650;2024-01-15T23:14:01;-1.20;89.50
9668;DHT22;4872;48.316;10.650;2024-01-15T23:16:28;-1.30;89.30
9668;DHT22;4872;48.316;10.650;2024-01-15T23:18:56;-1.30;88.60
9668;DHT22;4872;48.316;10.650;2024-01-15T23:21:24;-1.20;89.10
9668;DHT22;4872;48.316;10.650;2024-01-15T23:23:52;-1.30;88.50
9668;DHT22;4872;48.316;10.650;2024-01-15T23:26:19;-1.20;88.20
9668;DHT22;4872;48.316;10.650;2024-01-15T23:28:46;-1.30;88.50
